sensor_id;sensor_type;location;lat;lon;timestamp;P1;durP1;ratioP1;P2;durP2;ratioP2
31224;SDS011;17847;31.524;74.366;2023-09-18T00:01:34;5.80;;;4.70;;
31224;SDS011;17847;31.524;74.366;2023-09-18T00:04:05;4.97;;;4.47;;
31224;SDS011;17847;31.524;74.366;2023-09-18T00:06:34;5.40;;;4.57;;
31224;SDS011;17847;31.524;74.366;2023-09-18T00:09:04;4.95;;;4.40;;
31224;SDS011;17847;31.524;74.366;2023-09-18T00:11:35;5.35;;;4.85;;
31224;SDS011;17847;31.524;74.366;2023-09-18T00:14:07;5.25;;;4.75;;
31224;SDS011;17847;31.524;74.366;2023-09-18T00:16:38;4.85;;;4.45;;
31224;SDS011;17847;31.524;74.366;2023-09-18T00:19:24;6.15;;;4.97;;
31224;SDS011;17847;31.524;74.366;2023-09-18T00:21:53;7.93;;;5.80;;
31224;SDS011;17847;31.524;74.366;2023-09-18T00:24:22;5.95;;;4.93;;
31224;SDS011;17847;31.524;74.366;2023-09-18T00:26:53;5.40;;;4.78;;
31224;SDS011;17847;31.524;74.366;2023-09-18T00:29:23;5.57;;;4.78;;
31224;SDS011;17847;31.524;74.366;2023-09-18T00:31:52;6.88;;;4.72;;
31224;SDS011;17847;31.524;74.366;2023-09-18T00:34:21;5.18;;;4.45;;
31224;SDS011;17847;31.524;74.366;2023-09-18T00:36:51;5.72;;;4.20;;
31224;SDS011;17847;31.524;74.366;2023-09-18T00:39:20;5.88;;;4.10;;
31224;SDS011;17847;31.524;74.366;2023-09-18T00:41:49;4.20;;;3.78;;
31224;SDS011;17847;31.524;74.366;2023-09-18T00:44:22;3.80;;;3.40;;
31224;SDS011;17847;31.524;74.366;2023-09-18T00:46:54;4.68;;;3.63;;
31224;SDS011;17847;31.524;74.366;2023-09-18T00:49:25;5.07;;;3.58;;
31224;SDS011;17847;31.524;74.366;2023-09-18T00:51:54;5.07;;;3.38;;
31224;SDS011;17847;31.524;74.366;2023-09-18T00:54:24;3.72;;;3.25;;
31224;SDS011;17847;31.524;74.366;2023-09-18T00:56:54;4.40;;;3.40;;
31224;SDS011;17847;31.524;74.366;2023-09-18T00:59:24;3.65;;;3.15;;
31224;SDS011;17847;31.524;74.366;2023-09-18T01:01:53;3.65;;;3.35;;
31224;SDS011;17847;31.524;74.366;2023-09-18T01:04:23;4.20;;;3.40;;
31224;SDS011;17847;31.524;74.366;2023-09-18T01:06:54;3.35;;;3.03;;
31224;SDS011;17847;31.524;74.366;2023-09-18T01:09:25;3.80;;;3.40;;
31224;SDS011;17847;31.524;74.366;2023-09-18T01:17:26;3.58;;;3.25;;
31224;SDS011;17847;31.524;74.366;2023-09-18T01:19:55;4.03;;;3.63;;
31224;SDS011;17847;31.524;74.366;2023-09-18T01:22:28;3.67;;;3.20;;
31224;SDS011;17847;31.524;74.366;2023-09-18T01:27:28;4.20;;;3.83;;
31224;SDS011;17847;31.524;74.366;2023-09-18T01:29:57;4.53;;;3.75;;
31224;SDS011;17847;31.524;74.366;2023-09-18T01:32:27;3.70;;;3.35;;
31224;SDS011;17847;31.524;74.366;2023-09-18T01:35:00;4.10;;;3.70;;
31224;SDS011;17847;31.524;74.366;2023-09-18T01:37:34;4.15;;;3.70;;
31224;SDS011;17847;31.524;74.366;2023-09-18T01:40:06;4.78;;;3.40;;
31224;SDS011;17847;31.524;74.366;2023-09-18T01:42:36;3.97;;;3.35;;
31224;SDS011;17847;31.524;74.366;2023-09-18T01:45:06;3.78;;;3.47;;
31224;SDS011;17847;31.524;74.366;2023-09-18T01:47:37;3.88;;;3.42;;
31224;SDS011;17847;31.524;74.366;2023-09-18T01:50:06;3.63;;;3.20;;
31224;SDS011;17847;31.524;74.366;2023-09-18T01:52:36;3.63;;;3.17;;
31224;SDS011;17847;31.524;74.366;2023-09-18T01:55:05;4.22;;;3.10;;
31224;SDS011;17847;31.524;74.366;2023-09-18T01:57:35;3.35;;;2.45;;
31224;SDS011;17847;31.524;74.366;2023-09-18T02:00:05;4.45;;;2.80;;
31224;SDS011;17847;31.524;74.366;2023-09-18T02:02:39;3.05;;;2.45;;
31224;SDS011;17847;31.524;74.366;2023-09-18T02:05:25;2.17;;;1.98;;
31224;SDS011;17847;31.524;74.366;2023-09-18T02:07:55;2.50;;;2.00;;
31224;SDS011;17847;31.524;74.366;2023-09-18T02:10:25;3.55;;;2.40;;
31224;SDS011;17847;31.524;74.366;2023-09-18T02:12:54;2.63;;;2.42;;
31224;SDS011;17847;31.524;74.366;2023-09-18T02:15:23;3.22;;;2.33;;
31224;SDS011;17847;31.524;74.366;2023-09-18T02:17:53;2.92;;;2.47;;
31224;SDS011;17847;31.524;74.366;2023-09-18T02:20:22;4.90;;;2.53;;
31224;SDS011;17847;31.524;74.366;2023-09-18T02:22:52;4.03;;;2.60;;
31224;SDS011;17847;31.524;74.366;2023-09-18T02:25:21;3.28;;;2.67;;
31224;SDS011;17847;31.524;74.366;2023-09-18T02:27:50;3.10;;;2.55;;
31224;SDS011;17847;31.524;74.366;2023-09-18T02:30:19;4.63;;;2.65;;
31224;SDS011;17847;31.524;74.366;2023-09-18T02:32:49;4.85;;;2.80;;
31224;SDS011;17847;31.524;74.366;2023-09-18T02:35:19;2.97;;;2.47;;
31224;SDS011;17847;31.524;74.366;2023-09-18T02:37:48;6.15;;;2.40;;
31224;SDS011;17847;31.524;74.366;2023-09-18T02:40:17;2.95;;;2.47;;
31224;SDS011;17847;31.524;74.366;2023-09-18T02:42:47;3.38;;;2.47;;
31224;SDS011;17847;31.524;74.366;2023-09-18T02:45:16;3.00;;;2.20;;
31224;SDS011;17847;31.524;74.366;2023-09-18T02:47:45;2.60;;;2.30;;
31224;SDS011;17847;31.524;74.366;2023-09-18T02:50:15;2.83;;;2.25;;
31224;SDS011;17847;31.524;74.366;2023-09-18T02:52:44;9.25;;;3.85;;
31224;SDS011;17847;31.524;74.366;2023-09-18T02:55:14;3.10;;;2.10;;
31224;SDS011;17847;31.524;74.366;2023-09-18T02:57:43;2.33;;;1.52;;
31224;SDS011;17847;31.524;74.366;2023-09-18T03:00:13;6.18;;;2.58;;
31224;SDS011;17847;31.524;74.366;2023-09-18T03:02:43;2.38;;;1.70;;
31224;SDS011;17847;31.524;74.366;2023-09-18T03:05:13;2.85;;;1.63;;
31224;SDS011;17847;31.524;74.366;2023-09-18T03:07:42;4.70;;;1.65;;
31224;SDS011;17847;31.524;74.366;2023-09-18T03:10:13;3.60;;;1.42;;
31224;SDS011;17847;31.524;74.366;2023-09-18T03:12:47;1.95;;;1.50;;
31224;SDS011;17847;31.524;74.366;2023-09-18T03:15:17;2.03;;;1.50;;
31224;SDS011;17847;31.524;74.366;2023-09-18T03:17:47;2.60;;;1.65;;
31224;SDS011;17847;31.524;74.366;2023-09-18T03:20:21;2.75;;;1.33;;
31224;SDS011;17847;31.524;74.366;2023-09-18T03:22:56;1.23;;;1.13;;
31224;SDS011;17847;31.524;74.366;2023-09-18T03:25:27;2.78;;;1.13;;
31224;SDS011;17847;31.524;74.366;2023-09-18T03:27:57;2.25;;;1.13;;
31224;SDS011;17847;31.524;74.366;2023-09-18T03:32:59;2.08;;;1.23;;
31224;SDS011;17847;31.524;74.366;2023-09-18T03:35:31;1.58;;;1.48;;
31224;SDS011;17847;31.524;74.366;2023-09-18T03:38:14;2.78;;;1.33;;
31224;SDS011;17847;31.524;74.366;2023-09-18T03:40:43;4.40;;;1.58;;
31224;SDS011;17847;31.524;74.366;2023-09-18T03:43:13;2.40;;;1.90;;
31224;SDS011;17847;31.524;74.366;2023-09-18T03:45:42;1.60;;;1.50;;
31224;SDS011;17847;31.524;74.366;2023-09-18T03:48:12;2.45;;;1.60;;
31224;SDS011;17847;31.524;74.366;2023-09-18T03:50:42;5.43;;;1.85;;
31224;SDS011;17847;31.524;74.366;2023-09-18T03:53:12;2.38;;;1.90;;
31224;SDS011;17847;31.524;74.366;2023-09-18T03:55:43;2.17;;;1.77;;
31224;SDS011;17847;31.524;74.366;2023-09-18T03:58:12;1.80;;;1.70;;
31224;SDS011;17847;31.524;74.366;2023-09-18T04:00:42;1.77;;;1.60;;
31224;SDS011;17847;31.524;74.366;2023-09-18T04:03:11;2.47;;;1.70;;
31224;SDS011;17847;31.524;74.366;2023-09-18T04:05:41;2.45;;;1.80;;
31224;SDS011;17847;31.524;74.366;2023-09-18T04:08:11;2.17;;;1.73;;
31224;SDS011;17847;31.524;74.366;2023-09-18T04:10:41;4.57;;;2.03;;
31224;SDS011;17847;31.524;74.366;2023-09-18T04:13:13;2.50;;;1.77;;
31224;SDS011;17847;31.524;74.366;2023-09-18T04:15:42;3.10;;;1.50;;
31224;SDS011;17847;31.524;74.366;2023-09-18T04:18:14;2.00;;;1.70;;
31224;SDS011;17847;31.524;74.366;2023-09-18T04:20:44;1.75;;;1.65;;
31224;SDS011;17847;31.524;74.366;2023-09-18T04:23:17;2.58;;;2.38;;
31224;SDS011;17847;31.524;74.366;2023-09-18T04:25:47;5.60;;;2.72;;
31224;SDS011;17847;31.524;74.366;2023-09-18T04:28:17;7.78;;;2.40;;
31224;SDS011;17847;31.524;74.366;2023-09-18T04:30:50;8.25;;;2.65;;
31224;SDS011;17847;31.524;74.366;2023-09-18T04:33:21;7.57;;;3.20;;
31224;SDS011;17847;31.524;74.366;2023-09-18T04:35:50;3.92;;;2.50;;
31224;SDS011;17847;31.524;74.366;2023-09-18T04:38:20;4.50;;;2.45;;
31224;SDS011;17847;31.524;74.366;2023-09-18T04:40:56;4.70;;;2.50;;
31224;SDS011;17847;31.524;74.366;2023-09-18T04:43:28;5.90;;;2.30;;
31224;SDS011;17847;31.524;74.366;2023-09-18T04:46:00;2.50;;;2.30;;
31224;SDS011;17847;31.524;74.366;2023-09-18T04:48:34;2.60;;;2.28;;
31224;SDS011;17847;31.524;74.366;2023-09-18T04:51:05;2.25;;;1.80;;
31224;SDS011;17847;31.524;74.366;2023-09-18T04:53:35;2.30;;;2.10;;
31224;SDS011;17847;31.524;74.366;2023-09-18T04:56:21;2.85;;;2.00;;
31224;SDS011;17847;31.524;74.366;2023-09-18T04:58:50;4.60;;;2.13;;
31224;SDS011;17847;31.524;74.366;2023-09-18T05:01:20;3.85;;;2.03;;
31224;SDS011;17847;31.524;74.366;2023-09-18T05:03:49;2.47;;;2.28;;
31224;SDS011;17847;31.524;74.366;2023-09-18T05:06:19;2.63;;;2.00;;
31224;SDS011;17847;31.524;74.366;2023-09-18T05:08:49;2.10;;;1.90;;
31224;SDS011;17847;31.524;74.366;2023-09-18T05:11:20;1.52;;;1.42;;
31224;SDS011;17847;31.524;74.366;2023-09-18T05:13:50;1.77;;;1.50;;
31224;SDS011;17847;31.524;74.366;2023-09-18T05:16:19;2.10;;;1.77;;
31224;SDS011;17847;31.524;74.366;2023-09-18T05:18:48;3.55;;;1.83;;
31224;SDS011;17847;31.524;74.366;2023-09-18T05:21:18;1.48;;;1.30;;
31224;SDS011;17847;31.524;74.366;2023-09-18T05:23:52;1.60;;;1.40;;
31224;SDS011;17847;31.524;74.366;2023-09-18T05:26:22;1.48;;;1.30;;
31224;SDS011;17847;31.524;74.366;2023-09-18T05:28:52;1.08;;;0.82;;
31224;SDS011;17847;31.524;74.366;2023-09-18T05:31:23;0.80;;;0.80;;
31224;SDS011;17847;31.524;74.366;2023-09-18T05:33:52;1.55;;;1.45;;
31224;SDS011;17847;31.524;74.366;2023-09-18T05:36:22;3.53;;;0.82;;
31224;SDS011;17847;31.524;74.366;2023-09-18T05:38:51;1.00;;;0.90;;
31224;SDS011;17847;31.524;74.366;2023-09-18T05:41:20;0.90;;;0.82;;
31224;SDS011;17847;31.524;74.366;2023-09-18T05:43:54;1.65;;;0.90;;
31224;SDS011;17847;31.524;74.366;2023-09-18T05:46:26;3.00;;;0.93;;
31224;SDS011;17847;31.524;74.366;2023-09-18T05:48:56;1.20;;;1.10;;
31224;SDS011;17847;31.524;74.366;2023-09-18T05:51:26;1.52;;;1.00;;
31224;SDS011;17847;31.524;74.366;2023-09-18T05:53:56;3.65;;;1.00;;
31224;SDS011;17847;31.524;74.366;2023-09-18T05:56:41;4.20;;;1.10;;
31224;SDS011;17847;31.524;74.366;2023-09-18T05:59:11;4.35;;;1.13;;
31224;SDS011;17847;31.524;74.366;2023-09-18T06:01:40;2.03;;;1.20;;
31224;SDS011;17847;31.524;74.366;2023-09-18T06:04:10;1.33;;;1.00;;
31224;SDS011;17847;31.524;74.366;2023-09-18T06:06:41;1.42;;;0.98;;
31224;SDS011;17847;31.524;74.366;2023-09-18T06:09:10;6.03;;;1.02;;
31224;SDS011;17847;31.524;74.366;2023-09-18T06:11:41;0.82;;;0.75;;
31224;SDS011;17847;31.524;74.366;2023-09-18T06:14:10;0.80;;;0.75;;
31224;SDS011;17847;31.524;74.366;2023-09-18T06:16:40;2.83;;;0.70;;
31224;SDS011;17847;31.524;74.366;2023-09-18T06:19:10;3.70;;;0.70;;
31224;SDS011;17847;31.524;74.366;2023-09-18T06:21:39;2.13;;;0.90;;
31224;SDS011;17847;31.524;74.366;2023-09-18T06:24:08;1.65;;;0.80;;
31224;SDS011;17847;31.524;74.366;2023-09-18T06:26:37;3.10;;;0.70;;
31224;SDS011;17847;31.524;74.366;2023-09-18T06:29:07;0.60;;;0.60;;
31224;SDS011;17847;31.524;74.366;2023-09-18T06:31:37;1.27;;;0.70;;
31224;SDS011;17847;31.524;74.366;2023-09-18T06:34:06;0.93;;;0.63;;
31224;SDS011;17847;31.524;74.366;2023-09-18T06:36:36;0.85;;;0.52;;
31224;SDS011;17847;31.524;74.366;2023-09-18T06:39:06;0.90;;;0.57;;
31224;SDS011;17847;31.524;74.366;2023-09-18T06:41:35;0.77;;;0.70;;
31224;SDS011;17847;31.524;74.366;2023-09-18T06:44:05;1.52;;;0.60;;
31224;SDS011;17847;31.524;74.366;2023-09-18T06:46:34;0.63;;;0.60;;
31224;SDS011;17847;31.524;74.366;2023-09-18T06:49:03;2.47;;;0.70;;
31224;SDS011;17847;31.524;74.366;2023-09-18T06:51:33;1.13;;;0.90;;
31224;SDS011;17847;31.524;74.366;2023-09-18T06:54:10;0.80;;;0.80;;
31224;SDS011;17847;31.524;74.366;2023-09-18T06:56:39;2.55;;;0.88;;
31224;SDS011;17847;31.524;74.366;2023-09-18T06:59:10;1.13;;;1.00;;
31224;SDS011;17847;31.524;74.366;2023-09-18T07:01:42;1.38;;;0.80;;
31224;SDS011;17847;31.524;74.366;2023-09-18T07:04:11;2.33;;;0.80;;
31224;SDS011;17847;31.524;74.366;2023-09-18T07:06:41;0.73;;;0.70;;
31224;SDS011;17847;31.524;74.366;2023-09-18T07:09:10;1.70;;;0.80;;
31224;SDS011;17847;31.524;74.366;2023-09-18T07:11:41;2.58;;;1.02;;
31224;SDS011;17847;31.524;74.366;2023-09-18T07:14:10;3.40;;;0.88;;
31224;SDS011;17847;31.524;74.366;2023-09-18T07:16:39;3.42;;;0.70;;
31224;SDS011;17847;31.524;74.366;2023-09-18T07:19:09;1.67;;;1.10;;
31224;SDS011;17847;31.524;74.366;2023-09-18T07:21:40;1.25;;;0.85;;
31224;SDS011;17847;31.524;74.366;2023-09-18T07:24:10;3.78;;;0.77;;
31224;SDS011;17847;31.524;74.366;2023-09-18T07:26:45;0.63;;;0.60;;
31224;SDS011;17847;31.524;74.366;2023-09-18T07:29:15;2.90;;;0.73;;
31224;SDS011;17847;31.524;74.366;2023-09-18T07:31:44;0.60;;;0.50;;
31224;SDS011;17847;31.524;74.366;2023-09-18T07:34:15;0.63;;;0.63;;
31224;SDS011;17847;31.524;74.366;2023-09-18T07:36:45;1.38;;;0.60;;
31224;SDS011;17847;31.524;74.366;2023-09-18T07:39:14;2.05;;;0.85;;
31224;SDS011;17847;31.524;74.366;2023-09-18T07:41:44;2.10;;;0.75;;
31224;SDS011;17847;31.524;74.366;2023-09-18T07:44:22;1.27;;;1.00;;
31224;SDS011;17847;31.524;74.366;2023-09-18T07:46:51;1.30;;;0.82;;
31224;SDS011;17847;31.524;74.366;2023-09-18T07:49:22;1.85;;;0.60;;
31224;SDS011;17847;31.524;74.366;2023-09-18T07:51:51;0.60;;;0.50;;
31224;SDS011;17847;31.524;74.366;2023-09-18T07:54:21;0.80;;;0.60;;
31224;SDS011;17847;31.524;74.366;2023-09-18T07:56:50;1.95;;;0.73;;
31224;SDS011;17847;31.524;74.366;2023-09-18T07:59:19;1.05;;;0.75;;
31224;SDS011;17847;31.524;74.366;2023-09-18T08:01:49;1.10;;;0.90;;
31224;SDS011;17847;31.524;74.366;2023-09-18T08:04:19;1.02;;;0.70;;
31224;SDS011;17847;31.524;74.366;2023-09-18T08:06:48;2.38;;;0.77;;
31224;SDS011;17847;31.524;74.366;2023-09-18T08:09:17;5.05;;;1.20;;
31224;SDS011;17847;31.524;74.366;2023-09-18T08:11:47;1.05;;;0.73;;
31224;SDS011;17847;31.524;74.366;2023-09-18T08:14:18;1.27;;;0.70;;
31224;SDS011;17847;31.524;74.366;2023-09-18T08:16:47;3.70;;;0.82;;
31224;SDS011;17847;31.524;74.366;2023-09-18T08:19:16;3.22;;;1.30;;
31224;SDS011;17847;31.524;74.366;2023-09-18T08:21:48;2.00;;;1.08;;
31224;SDS011;17847;31.524;74.366;2023-09-18T08:24:17;3.30;;;1.30;;
31224;SDS011;17847;31.524;74.366;2023-09-18T08:26:46;1.52;;;0.73;;
31224;SDS011;17847;31.524;74.366;2023-09-18T08:29:16;1.20;;;1.00;;
31224;SDS011;17847;31.524;74.366;2023-09-18T08:31:46;1.30;;;0.80;;
31224;SDS011;17847;31.524;74.366;2023-09-18T08:34:15;2.85;;;0.80;;
31224;SDS011;17847;31.524;74.366;2023-09-18T08:36:45;3.40;;;0.60;;
31224;SDS011;17847;31.524;74.366;2023-09-18T08:39:14;2.75;;;0.90;;
31224;SDS011;17847;31.524;74.366;2023-09-18T08:41:44;1.58;;;0.80;;
31224;SDS011;17847;31.524;74.366;2023-09-18T08:44:19;2.10;;;0.73;;
31224;SDS011;17847;31.524;74.366;2023-09-18T08:46:53;1.20;;;1.10;;
31224;SDS011;17847;31.524;74.366;2023-09-18T08:49:25;0.98;;;0.82;;
31224;SDS011;17847;31.524;74.366;2023-09-18T08:51:55;1.20;;;0.82;;
31224;SDS011;17847;31.524;74.366;2023-09-18T08:54:25;4.18;;;0.90;;
31224;SDS011;17847;31.524;74.366;2023-09-18T08:56:57;2.30;;;0.90;;
31224;SDS011;17847;31.524;74.366;2023-09-18T08:59:27;1.50;;;0.82;;
31224;SDS011;17847;31.524;74.366;2023-09-18T09:01:58;1.88;;;1.00;;
31224;SDS011;17847;31.524;74.366;2023-09-18T09:04:27;1.17;;;0.80;;
31224;SDS011;17847;31.524;74.366;2023-09-18T09:06:57;1.38;;;0.80;;
31224;SDS011;17847;31.524;74.366;2023-09-18T09:09:27;1.52;;;0.93;;
31224;SDS011;17847;31.524;74.366;2023-09-18T09:11:57;0.93;;;0.90;;
31224;SDS011;17847;31.524;74.366;2023-09-18T09:14:26;1.42;;;0.98;;
31224;SDS011;17847;31.524;74.366;2023-09-18T09:16:56;2.10;;;0.63;;
31224;SDS011;17847;31.524;74.366;2023-09-18T09:19:33;1.17;;;0.85;;
31224;SDS011;17847;31.524;74.366;2023-09-18T09:22:30;2.33;;;0.90;;
31224;SDS011;17847;31.524;74.366;2023-09-18T09:25:02;1.63;;;1.00;;
31224;SDS011;17847;31.524;74.366;2023-09-18T09:27:41;0.77;;;0.77;;
31224;SDS011;17847;31.524;74.366;2023-09-18T09:30:11;0.88;;;0.70;;
31224;SDS011;17847;31.524;74.366;2023-09-18T09:32:50;0.80;;;0.80;;
31224;SDS011;17847;31.524;74.366;2023-09-18T09:37:59;6.18;;;1.25;;
31224;SDS011;17847;31.524;74.366;2023-09-18T09:40:47;4.43;;;1.10;;
31224;SDS011;17847;31.524;74.366;2023-09-18T09:43:16;1.50;;;0.90;;
31224;SDS011;17847;31.524;74.366;2023-09-18T09:45:46;1.88;;;1.02;;
31224;SDS011;17847;31.524;74.366;2023-09-18T09:48:15;1.42;;;0.95;;
31224;SDS011;17847;31.524;74.366;2023-09-18T09:50:45;2.95;;;1.10;;
31224;SDS011;17847;31.524;74.366;2023-09-18T09:53:17;2.00;;;0.85;;
31224;SDS011;17847;31.524;74.366;2023-09-18T09:55:52;4.95;;;1.10;;
31224;SDS011;17847;31.524;74.366;2023-09-18T09:58:26;2.10;;;1.02;;
31224;SDS011;17847;31.524;74.366;2023-09-18T10:01:00;1.55;;;1.10;;
31224;SDS011;17847;31.524;74.366;2023-09-18T10:03:38;1.98;;;1.30;;
31224;SDS011;17847;31.524;74.366;2023-09-18T10:06:08;1.42;;;1.20;;
31224;SDS011;17847;31.524;74.366;2023-09-18T10:08:41;1.52;;;1.00;;
31224;SDS011;17847;31.524;74.366;2023-09-18T10:11:11;1.17;;;0.90;;
31224;SDS011;17847;31.524;74.366;2023-09-18T10:13:51;1.55;;;1.15;;
31224;SDS011;17847;31.524;74.366;2023-09-18T10:16:25;2.97;;;1.35;;
31224;SDS011;17847;31.524;74.366;2023-09-18T10:21:51;2.28;;;1.33;;
31224;SDS011;17847;31.524;74.366;2023-09-18T10:26:55;1.20;;;1.10;;
31224;SDS011;17847;31.524;74.366;2023-09-18T10:29:26;2.17;;;1.40;;
31224;SDS011;17847;31.524;74.366;2023-09-18T10:31:58;1.67;;;1.25;;
31224;SDS011;17847;31.524;74.366;2023-09-18T10:34:27;4.20;;;1.52;;
31224;SDS011;17847;31.524;74.366;2023-09-18T10:36:59;3.47;;;1.40;;
31224;SDS011;17847;31.524;74.366;2023-09-18T10:39:39;1.30;;;1.10;;
31224;SDS011;17847;31.524;74.366;2023-09-18T10:42:12;3.17;;;1.13;;
31224;SDS011;17847;31.524;74.366;2023-09-18T10:44:45;1.67;;;1.20;;
31224;SDS011;17847;31.524;74.366;2023-09-18T10:47:15;1.27;;;1.02;;
31224;SDS011;17847;31.524;74.366;2023-09-18T10:49:46;1.20;;;1.10;;
31224;SDS011;17847;31.524;74.366;2023-09-18T10:52:18;2.13;;;1.00;;
31224;SDS011;17847;31.524;74.366;2023-09-18T10:54:47;3.05;;;1.13;;
31224;SDS011;17847;31.524;74.366;2023-09-18T10:57:18;3.38;;;1.23;;
31224;SDS011;17847;31.524;74.366;2023-09-18T10:59:50;0.93;;;0.70;;
31224;SDS011;17847;31.524;74.366;2023-09-18T11:02:24;3.05;;;1.10;;
31224;SDS011;17847;31.524;74.366;2023-09-18T11:04:54;0.70;;;0.70;;
31224;SDS011;17847;31.524;74.366;2023-09-18T11:07:24;2.63;;;0.70;;
31224;SDS011;17847;31.524;74.366;2023-09-18T11:09:53;4.10;;;0.77;;
31224;SDS011;17847;31.524;74.366;2023-09-18T11:12:41;2.70;;;1.05;;
31224;SDS011;17847;31.524;74.366;2023-09-18T11:15:25;2.53;;;0.98;;
31224;SDS011;17847;31.524;74.366;2023-09-18T11:18:01;2.03;;;0.82;;
31224;SDS011;17847;31.524;74.366;2023-09-18T11:20:35;1.05;;;0.90;;
31224;SDS011;17847;31.524;74.366;2023-09-18T11:25:47;0.70;;;0.70;;
31224;SDS011;17847;31.524;74.366;2023-09-18T11:28:23;1.42;;;0.80;;
31224;SDS011;17847;31.524;74.366;2023-09-18T11:30:55;3.10;;;1.58;;
31224;SDS011;17847;31.524;74.366;2023-09-18T11:33:39;1.48;;;0.63;;
31224;SDS011;17847;31.524;74.366;2023-09-18T11:36:12;1.60;;;0.65;;
31224;SDS011;17847;31.524;74.366;2023-09-18T11:38:59;2.42;;;0.65;;
31224;SDS011;17847;31.524;74.366;2023-09-18T11:41:33;1.88;;;0.60;;
31224;SDS011;17847;31.524;74.366;2023-09-18T11:46:46;0.68;;;0.60;;
31224;SDS011;17847;31.524;74.366;2023-09-18T11:49:24;0.73;;;0.65;;
31224;SDS011;17847;31.524;74.366;2023-09-18T11:51:58;2.30;;;0.80;;
31224;SDS011;17847;31.524;74.366;2023-09-18T11:54:28;2.23;;;0.77;;
31224;SDS011;17847;31.524;74.366;2023-09-18T11:57:02;1.58;;;0.77;;
31224;SDS011;17847;31.524;74.366;2023-09-18T11:59:52;1.80;;;0.60;;
31224;SDS011;17847;31.524;74.366;2023-09-18T12:02:25;2.13;;;0.95;;
31224;SDS011;17847;31.524;74.366;2023-09-18T12:05:16;0.85;;;0.80;;
31224;SDS011;17847;31.524;74.366;2023-09-18T12:07:49;2.85;;;0.82;;
31224;SDS011;17847;31.524;74.366;2023-09-18T12:10:19;0.85;;;0.75;;
31224;SDS011;17847;31.524;74.366;2023-09-18T12:12:49;1.20;;;0.80;;
31224;SDS011;17847;31.524;74.366;2023-09-18T12:15:19;1.67;;;1.13;;
31224;SDS011;17847;31.524;74.366;2023-09-18T12:17:48;1.20;;;0.80;;
31224;SDS011;17847;31.524;74.366;2023-09-18T12:20:22;0.80;;;0.70;;
31224;SDS011;17847;31.524;74.366;2023-09-18T12:22:51;4.13;;;0.88;;
31224;SDS011;17847;31.524;74.366;2023-09-18T12:25:22;6.82;;;1.00;;
31224;SDS011;17847;31.524;74.366;2023-09-18T12:28:08;3.60;;;1.05;;
31224;SDS011;17847;31.524;74.366;2023-09-18T12:30:37;2.55;;;1.00;;
31224;SDS011;17847;31.524;74.366;2023-09-18T12:33:08;4.85;;;1.20;;
31224;SDS011;17847;31.524;74.366;2023-09-18T12:35:37;5.00;;;1.20;;
31224;SDS011;17847;31.524;74.366;2023-09-18T12:38:18;10.73;;;1.20;;
31224;SDS011;17847;31.524;74.366;2023-09-18T12:40:53;7.50;;;1.23;;
31224;SDS011;17847;31.524;74.366;2023-09-18T12:43:22;5.90;;;1.05;;
31224;SDS011;17847;31.524;74.366;2023-09-18T12:45:53;10.88;;;1.33;;
31224;SDS011;17847;31.524;74.366;2023-09-18T12:48:26;2.45;;;1.20;;
31224;SDS011;17847;31.524;74.366;2023-09-18T12:51:01;6.10;;;1.33;;
31224;SDS011;17847;31.524;74.366;2023-09-18T12:53:33;4.13;;;1.40;;
31224;SDS011;17847;31.524;74.366;2023-09-18T12:58:36;6.68;;;1.27;;
31224;SDS011;17847;31.524;74.366;2023-09-18T13:01:18;9.90;;;2.03;;
31224;SDS011;17847;31.524;74.366;2023-09-18T13:04:06;7.00;;;1.17;;
31224;SDS011;17847;31.524;74.366;2023-09-18T13:06:41;4.90;;;1.30;;
31224;SDS011;17847;31.524;74.366;2023-09-18T13:09:17;3.05;;;1.30;;
31224;SDS011;17847;31.524;74.366;2023-09-18T13:11:55;5.10;;;1.20;;
31224;SDS011;17847;31.524;74.366;2023-09-18T13:14:25;4.75;;;1.30;;
31224;SDS011;17847;31.524;74.366;2023-09-18T13:17:01;6.03;;;1.27;;
31224;SDS011;17847;31.524;74.366;2023-09-18T13:19:33;6.20;;;1.30;;
31224;SDS011;17847;31.524;74.366;2023-09-18T13:22:05;2.25;;;1.10;;
31224;SDS011;17847;31.524;74.366;2023-09-18T13:24:34;6.75;;;1.25;;
31224;SDS011;17847;31.524;74.366;2023-09-18T13:27:08;1.80;;;1.10;;
31224;SDS011;17847;31.524;74.366;2023-09-18T13:29:39;8.35;;;1.60;;
31224;SDS011;17847;31.524;74.366;2023-09-18T13:32:09;4.85;;;1.58;;
31224;SDS011;17847;31.524;74.366;2023-09-18T13:34:39;7.28;;;1.70;;
31224;SDS011;17847;31.524;74.366;2023-09-18T13:37:09;4.65;;;1.48;;
31224;SDS011;17847;31.524;74.366;2023-09-18T13:39:39;4.03;;;1.60;;
31224;SDS011;17847;31.524;74.366;2023-09-18T13:42:08;10.75;;;1.83;;
31224;SDS011;17847;31.524;74.366;2023-09-18T13:44:38;9.75;;;1.80;;
31224;SDS011;17847;31.524;74.366;2023-09-18T13:47:07;7.05;;;2.20;;
31224;SDS011;17847;31.524;74.366;2023-09-18T13:49:36;10.38;;;2.20;;
31224;SDS011;17847;31.524;74.366;2023-09-18T13:52:06;4.65;;;1.70;;
31224;SDS011;17847;31.524;74.366;2023-09-18T13:54:35;6.10;;;1.60;;
31224;SDS011;17847;31.524;74.366;2023-09-18T13:57:04;4.32;;;1.30;;
31224;SDS011;17847;31.524;74.366;2023-09-18T13:59:34;2.90;;;1.40;;
31224;SDS011;17847;31.524;74.366;2023-09-18T14:02:03;3.83;;;1.70;;
31224;SDS011;17847;31.524;74.366;2023-09-18T14:04:33;5.97;;;1.48;;
31224;SDS011;17847;31.524;74.366;2023-09-18T14:07:03;8.82;;;1.60;;
31224;SDS011;17847;31.524;74.366;2023-09-18T14:09:37;3.42;;;1.48;;
31224;SDS011;17847;31.524;74.366;2023-09-18T14:12:07;5.15;;;1.60;;
31224;SDS011;17847;31.524;74.366;2023-09-18T14:14:36;9.82;;;2.03;;
31224;SDS011;17847;31.524;74.366;2023-09-18T14:17:06;4.68;;;1.80;;
31224;SDS011;17847;31.524;74.366;2023-09-18T14:19:37;4.55;;;2.45;;
31224;SDS011;17847;31.524;74.366;2023-09-18T14:22:07;3.75;;;1.80;;
31224;SDS011;17847;31.524;74.366;2023-09-18T14:24:37;3.67;;;1.98;;
31224;SDS011;17847;31.524;74.366;2023-09-18T14:27:07;5.30;;;2.20;;
31224;SDS011;17847;31.524;74.366;2023-09-18T14:29:36;5.05;;;2.33;;
31224;SDS011;17847;31.524;74.366;2023-09-18T14:32:05;6.43;;;1.90;;
31224;SDS011;17847;31.524;74.366;2023-09-18T14:34:36;6.47;;;2.00;;
31224;SDS011;17847;31.524;74.366;2023-09-18T14:37:05;8.15;;;2.30;;
31224;SDS011;17847;31.524;74.366;2023-09-18T14:39:35;4.47;;;2.15;;
31224;SDS011;17847;31.524;74.366;2023-09-18T14:42:04;2.55;;;2.00;;
31224;SDS011;17847;31.524;74.366;2023-09-18T14:44:34;4.13;;;2.10;;
31224;SDS011;17847;31.524;74.366;2023-09-18T14:47:03;8.18;;;2.03;;
31224;SDS011;17847;31.524;74.366;2023-09-18T14:49:34;5.82;;;2.38;;
31224;SDS011;17847;31.524;74.366;2023-09-18T14:52:03;6.72;;;2.10;;
31224;SDS011;17847;31.524;74.366;2023-09-18T14:54:32;4.07;;;2.10;;
31224;SDS011;17847;31.524;74.366;2023-09-18T14:57:01;3.78;;;2.20;;
31224;SDS011;17847;31.524;74.366;2023-09-18T14:59:31;2.65;;;2.20;;
31224;SDS011;17847;31.524;74.366;2023-09-18T15:02:08;8.40;;;2.40;;
31224;SDS011;17847;31.524;74.366;2023-09-18T15:04:38;6.40;;;3.03;;
31224;SDS011;17847;31.524;74.366;2023-09-18T15:07:07;6.22;;;2.47;;
31224;SDS011;17847;31.524;74.366;2023-09-18T15:09:37;10.43;;;3.15;;
31224;SDS011;17847;31.524;74.366;2023-09-18T15:12:07;5.47;;;2.78;;
31224;SDS011;17847;31.524;74.366;2023-09-18T15:17:08;7.22;;;2.88;;
31224;SDS011;17847;31.524;74.366;2023-09-18T15:19:37;5.38;;;3.22;;
31224;SDS011;17847;31.524;74.366;2023-09-18T15:22:08;5.55;;;3.10;;
31224;SDS011;17847;31.524;74.366;2023-09-18T15:24:38;5.00;;;3.30;;
31224;SDS011;17847;31.524;74.366;2023-09-18T15:27:07;8.95;;;3.25;;